sensor_id;sensor_type;location;lat;lon;timestamp;pressure;altitude;pressure_sealevel;temperature;humidity
56374;BME280;58212;47.034;7.376;2023-10-19T00:00:48;94049.84;;;10.49;93.52
56374;BME280;58212;47.034;7.376;2023-10-19T00:03:16;94064.63;;;10.50;93.14
56374;BME280;58212;47.034;7.376;2023-10-19T00:05:43;94061.72;;;10.37;93.42
56374;BME280;58212;47.034;7.376;2023-10-19T00:08:10;94052.16;;;10.25;93.64
56374;BME280;58212;47.034;7.376;2023-10-19T00:10:58;94049.53;;;10.36;94.06
56374;BME280;58212;47.034;7.376;2023-10-19T00:13:28;94042.41;;;10.36;93.90
56374;BME280;58212;47.034;7.376;2023-10-19T00:15:55;94041.63;;;10.41;93.81
56374;BME280;58212;47.034;7.376;2023-10-19T00:18:23;94045.59;;;10.58;93.42
56374;BME280;58212;47.034;7.376;2023-10-19T00:20:50;94045.56;;;10.68;93.12
56374;BME280;58212;47.034;7.376;2023-10-19T00:23:19;94037.94;;;10.67;92.57
56374;BME280;58212;47.034;7.376;2023-10-19T00:25:50;94027.06;;;10.68;92.15
56374;BME280;58212;47.034;7.376;2023-10-19T00:28:18;94025.75;;;10.71;92.53
56374;BME280;58212;47.034;7.376;2023-10-19T00:30:45;94025.72;;;10.76;92.29
56374;BME280;58212;47.034;7.376;2023-10-19T00:33:29;94022.03;;;10.77;92.37
56374;BME280;58212;47.034;7.376;2023-10-19T00:35:59;94024.44;;;10.78;92.03
56374;BME280;58212;47.034;7.376;2023-10-19T00:38:33;94017.53;;;10.77;91.90
56374;BME280;58212;47.034;7.376;2023-10-19T00:41:08;94023.63;;;10.78;92.01
56374;BME280;58212;47.034;7.376;2023-10-19T00:43:41;94009.06;;;10.81;91.96
56374;BME280;58212;47.034;7.376;2023-10-19T00:46:09;94004.03;;;10.79;92.27
56374;BME280;58212;47.034;7.376;2023-10-19T00:48:45;93997.44;;;10.76;92.17
56374;BME280;58212;47.034;7.376;2023-10-19T00:51:14;94004.81;;;10.79;91.91
56374;BME280;58212;47.034;7.376;2023-10-19T00:53:54;93998.22;;;10.82;92.43
56374;BME280;58212;47.034;7.376;2023-10-19T00:56:22;93992.38;;;10.75;92.07
56374;BME280;58212;47.034;7.376;2023-10-19T00:58:54;93993.72;;;10.72;92.78
56374;BME280;58212;47.034;7.376;2023-10-19T01:01:28;93996.63;;;10.76;92.76
56374;BME280;58212;47.034;7.376;2023-10-19T01:03:54;93997.16;;;10.78;92.70
56374;BME280;58212;47.034;7.376;2023-10-19T01:06:24;94004.81;;;10.79;92.52
56374;BME280;58212;47.034;7.376;2023-10-19T01:08:52;93998.75;;;10.84;92.36
56374;BME280;58212;47.034;7.376;2023-10-19T01:11:20;93990.53;;;10.86;92.34
56374;BME280;58212;47.034;7.376;2023-10-19T01:13:55;93989.22;;;10.88;92.23
56374;BME280;58212;47.034;7.376;2023-10-19T01:16:21;93992.13;;;10.92;92.18
56374;BME280;58212;47.034;7.376;2023-10-19T01:18:49;93992.38;;;10.95;92.13
56374;BME280;58212;47.034;7.376;2023-10-19T01:21:21;93984.94;;;10.97;92.25
56374;BME280;58212;47.034;7.376;2023-10-19T01:23:52;93984.69;;;10.99;92.45
56374;BME280;58212;47.034;7.376;2023-10-19T01:26:39;93978.34;;;11.00;92.53
56374;BME280;58212;47.034;7.376;2023-10-19T01:29:06;93978.06;;;11.01;92.51
56374;BME280;58212;47.034;7.376;2023-10-19T01:31:53;93968.25;;;11.02;92.44
56374;BME280;58212;47.034;7.376;2023-10-19T01:34:31;93962.16;;;11.01;92.11
56374;BME280;58212;47.034;7.376;2023-10-19T01:36:59;93955.81;;;11.02;91.72
56374;BME280;58212;47.034;7.376;2023-10-19T01:39:30;93946.28;;;11.06;92.06
56374;BME280;58212;47.034;7.376;2023-10-19T01:41:57;93942.84;;;11.06;92.25
56374;BME280;58212;47.034;7.376;2023-10-19T01:47:21;93947.88;;;11.07;92.08
56374;BME280;58212;47.034;7.376;2023-10-19T01:49:48;93951.31;;;11.08;91.76
56374;BME280;58212;47.034;7.376;2023-10-19T01:52:17;93951.31;;;11.08;91.97
56374;BME280;58212;47.034;7.376;2023-10-19T01:55:00;93962.69;;;11.08;91.72
56374;BME280;58212;47.034;7.376;2023-10-19T01:57:33;93960.56;;;11.10;91.77
56374;BME280;58212;47.034;7.376;2023-10-19T02:00:00;93956.31;;;11.09;92.25
56374;BME280;58212;47.034;7.376;2023-10-19T02:02:37;93964.81;;;11.11;91.91
56374;BME280;58212;47.034;7.376;2023-10-19T02:05:04;93966.38;;;11.12;92.21
56374;BME280;58212;47.034;7.376;2023-10-19T02:10:33;93941.78;;;11.07;92.33
56374;BME280;58212;47.034;7.376;2023-10-19T02:13:01;93938.84;;;11.08;92.55
56374;BME280;58212;47.034;7.376;2023-10-19T02:15:33;93938.34;;;11.11;92.45
56374;BME280;58212;47.034;7.376;2023-10-19T02:18:14;93929.59;;;11.11;92.34
56374;BME280;58212;47.034;7.376;2023-10-19T02:20:42;93930.09;;;11.13;92.85
56374;BME280;58212;47.034;7.376;2023-10-19T02:23:13;93930.91;;;11.13;92.91
56374;BME280;58212;47.034;7.376;2023-10-19T02:25:41;93929.06;;;11.14;92.96
56374;BME280;58212;47.034;7.376;2023-10-19T02:28:07;93918.97;;;11.16;93.09
56374;BME280;58212;47.034;7.376;2023-10-19T02:33:16;93922.97;;;11.13;92.83
56374;BME280;58212;47.034;7.376;2023-10-19T02:35:42;93913.72;;;11.06;93.46
56374;BME280;58212;47.034;7.376;2023-10-19T02:38:08;93913.72;;;11.06;93.75
56374;BME280;58212;47.034;7.376;2023-10-19T02:40:35;93921.91;;;11.04;93.92
56374;BME280;58212;47.034;7.376;2023-10-19T02:43:04;93907.91;;;11.04;94.01
56374;BME280;58212;47.034;7.376;2023-10-19T02:45:45;93902.38;;;11.00;94.64
56374;BME280;58212;47.034;7.376;2023-10-19T02:48:13;93905.28;;;11.04;94.14
56374;BME280;58212;47.034;7.376;2023-10-19T02:50:39;93897.03;;;11.10;94.37
56374;BME280;58212;47.034;7.376;2023-10-19T02:53:05;93894.88;;;11.17;93.69
56374;BME280;58212;47.034;7.376;2023-10-19T02:58:14;93881.88;;;11.21;93.81
56374;BME280;58212;47.034;7.376;2023-10-19T03:00:55;93882.94;;;11.20;93.93
56374;BME280;58212;47.034;7.376;2023-10-19T03:03:21;93883.19;;;11.23;93.99
56374;BME280;58212;47.034;7.376;2023-10-19T03:08:30;93873.94;;;11.26;94.07
56374;BME280;58212;47.034;7.376;2023-10-19T03:10:56;93868.09;;;11.29;93.90
56374;BME280;58212;47.034;7.376;2023-10-19T03:13:31;93867.28;;;11.28;93.84
56374;BME280;58212;47.034;7.376;2023-10-19T03:15:58;93864.41;;;11.25;93.95
56374;BME280;58212;47.034;7.376;2023-10-19T03:18:26;93867.91;;;11.10;94.45
56374;BME280;58212;47.034;7.376;2023-10-19T03:21:12;93874.28;;;11.04;95.07
56374;BME280;58212;47.034;7.376;2023-10-19T03:23:39;93871.13;;;11.02;95.59
56374;BME280;58212;47.034;7.376;2023-10-19T03:26:06;93868.97;;;11.09;95.19
56374;BME280;58212;47.034;7.376;2023-10-19T03:28:54;93860.94;;;11.24;94.74
56374;BME280;58212;47.034;7.376;2023-10-19T03:31:22;93862.78;;;11.29;94.42
56374;BME280;58212;47.034;7.376;2023-10-19T03:33:50;93864.91;;;11.27;94.14
56374;BME280;58212;47.034;7.376;2023-10-19T03:36:20;93859.84;;;11.31;94.47
56374;BME280;58212;47.034;7.376;2023-10-19T03:38:48;93855.34;;;11.36;94.38
56374;BME280;58212;47.034;7.376;2023-10-19T03:41:37;93859.31;;;11.34;94.33
56374;BME280;58212;47.034;7.376;2023-10-19T03:44:09;93844.75;;;11.36;94.44
56374;BME280;58212;47.034;7.376;2023-10-19T03:46:41;93848.44;;;11.35;94.24
56374;BME280;58212;47.034;7.376;2023-10-19T03:49:19;93840.78;;;11.34;94.49
56374;BME280;58212;47.034;7.376;2023-10-19T03:51:46;93844.25;;;11.29;94.55
56374;BME280;58212;47.034;7.376;2023-10-19T03:54:25;93836.56;;;11.33;94.51
56374;BME280;58212;47.034;7.376;2023-10-19T03:56:52;93837.59;;;11.32;94.69
56374;BME280;58212;47.034;7.376;2023-10-19T03:59:21;93827.00;;;11.32;94.20
56374;BME280;58212;47.034;7.376;2023-10-19T04:01:48;93823.94;;;11.14;94.67
56374;BME280;58212;47.034;7.376;2023-10-19T04:04:14;93820.19;;;11.25;94.53
56374;BME280;58212;47.034;7.376;2023-10-19T04:09:43;93803.19;;;11.32;94.30
56374;BME280;58212;47.034;7.376;2023-10-19T04:12:25;93805.31;;;11.30;93.91
56374;BME280;58212;47.034;7.376;2023-10-19T04:14:55;93806.09;;;11.30;94.24
56374;BME280;58212;47.034;7.376;2023-10-19T04:17:22;93806.38;;;11.28;93.98
56374;BME280;58212;47.034;7.376;2023-10-19T04:19:49;93800.78;;;11.30;93.98
56374;BME280;58212;47.034;7.376;2023-10-19T04:24:58;93795.81;;;11.23;94.52
56374;BME280;58212;47.034;7.376;2023-10-19T04:27:26;93798.75;;;11.22;94.09
56374;BME280;58212;47.034;7.376;2023-10-19T04:29:55;93795.31;;;11.21;94.60
56374;BME280;58212;47.034;7.376;2023-10-19T04:32:23;93787.13;;;11.18;94.39
56374;BME280;58212;47.034;7.376;2023-10-19T04:34:51;93774.13;;;11.21;94.66
56374;BME280;58212;47.034;7.376;2023-10-19T04:37:18;93778.63;;;11.21;94.30
56374;BME280;58212;47.034;7.376;2023-10-19T04:39:44;93777.03;;;11.20;94.48
56374;BME280;58212;47.034;7.376;2023-10-19T04:42:11;93787.38;;;11.21;94.34
56374;BME280;58212;47.034;7.376;2023-10-19T04:44:52;93778.38;;;11.17;94.21
56374;BME280;58212;47.034;7.376;2023-10-19T04:48:09;93777.63;;;11.12;94.51
56374;BME280;58212;47.034;7.376;2023-10-19T04:50:36;93771.56;;;11.06;94.27
56374;BME280;58212;47.034;7.376;2023-10-19T04:53:03;93766.28;;;11.06;94.72
56374;BME280;58212;47.034;7.376;2023-10-19T04:55:30;93754.41;;;11.04;94.90
56374;BME280;58212;47.034;7.376;2023-10-19T04:57:57;93756.19;;;11.08;94.35
56374;BME280;58212;47.034;7.376;2023-10-19T05:00:24;93758.84;;;11.08;94.45
56374;BME280;58212;47.034;7.376;2023-10-19T05:02:53;93753.28;;;11.10;94.79
56374;BME280;58212;47.034;7.376;2023-10-19T05:05:21;93753.03;;;11.11;94.92
56374;BME280;58212;47.034;7.376;2023-10-19T05:07:48;93743.72;;;11.14;94.55
56374;BME280;58212;47.034;7.376;2023-10-19T05:10:15;93748.78;;;11.10;94.78
56374;BME280;58212;47.034;7.376;2023-10-19T05:12:42;93756.72;;;11.10;95.22
56374;BME280;58212;47.034;7.376;2023-10-19T05:15:09;93749.53;;;11.16;94.56
56374;BME280;58212;47.034;7.376;2023-10-19T05:17:52;93742.13;;;11.18;94.78
56374;BME280;58212;47.034;7.376;2023-10-19T05:20:35;93742.63;;;11.20;94.65
56374;BME280;58212;47.034;7.376;2023-10-19T05:23:06;93744.72;;;11.23;94.35
56374;BME280;58212;47.034;7.376;2023-10-19T05:25:33;93741.25;;;11.27;94.26
56374;BME280;58212;47.034;7.376;2023-10-19T05:28:01;93741.00;;;11.24;94.01
56374;BME280;58212;47.034;7.376;2023-10-19T05:30:28;93740.28;;;11.18;94.93
56374;BME280;58212;47.034;7.376;2023-10-19T05:32:55;93744.47;;;11.19;94.64
56374;BME280;58212;47.034;7.376;2023-10-19T05:38:07;93735.72;;;11.24;94.70
56374;BME280;58212;47.034;7.376;2023-10-19T05:40:34;93743.94;;;11.22;94.61
56374;BME280;58212;47.034;7.376;2023-10-19T05:43:02;93742.91;;;11.18;94.50
56374;BME280;58212;47.034;7.376;2023-10-19T05:45:29;93733.63;;;11.21;94.71
56374;BME280;58212;47.034;7.376;2023-10-19T05:47:56;93733.84;;;11.24;94.91
56374;BME280;58212;47.034;7.376;2023-10-19T05:50:23;93731.22;;;11.24;94.90
56374;BME280;58212;47.034;7.376;2023-10-19T05:52:50;93732.28;;;11.23;94.40
56374;BME280;58212;47.034;7.376;2023-10-19T05:55:18;93731.72;;;11.26;94.29
56374;BME280;58212;47.034;7.376;2023-10-19T05:57:47;93730.94;;;11.26;94.59
56374;BME280;58212;47.034;7.376;2023-10-19T06:00:15;93731.22;;;11.24;94.60
56374;BME280;58212;47.034;7.376;2023-10-19T06:02:55;93727.25;;;11.22;94.70
56374;BME280;58212;47.034;7.376;2023-10-19T06:05:23;93729.91;;;11.22;94.86
56374;BME280;58212;47.034;7.376;2023-10-19T06:07:50;93730.41;;;11.24;94.68
56374;BME280;58212;47.034;7.376;2023-10-19T06:10:20;93738.88;;;11.26;94.70
56374;BME280;58212;47.034;7.376;2023-10-19T06:12:48;93738.66;;;11.22;95.18
56374;BME280;58212;47.034;7.376;2023-10-19T06:15:21;93740.75;;;11.25;94.65
56374;BME280;58212;47.034;7.376;2023-10-19T06:17:49;93745.72;;;11.32;95.19
56374;BME280;58212;47.034;7.376;2023-10-19T06:20:17;93739.88;;;11.35;94.71
56374;BME280;58212;47.034;7.376;2023-10-19T06:22:50;93732.72;;;11.36;94.80
56374;BME280;58212;47.034;7.376;2023-10-19T06:25:19;93734.88;;;11.34;94.83
56374;BME280;58212;47.034;7.376;2023-10-19T06:27:48;93722.47;;;11.24;94.99
56374;BME280;58212;47.034;7.376;2023-10-19T06:30:16;93710.91;;;11.15;95.41
56374;BME280;58212;47.034;7.376;2023-10-19T06:32:48;93710.16;;;11.04;95.99
56374;BME280;58212;47.034;7.376;2023-10-19T06:35:16;93718.28;;;11.18;95.62
56374;BME280;58212;47.034;7.376;2023-10-19T06:37:43;93720.63;;;11.24;95.59
56374;BME280;58212;47.034;7.376;2023-10-19T06:40:11;93721.41;;;11.25;95.52
56374;BME280;58212;47.034;7.376;2023-10-19T06:42:42;93704.72;;;11.24;95.46
56374;BME280;58212;47.034;7.376;2023-10-19T06:47:53;93696.28;;;11.22;95.67
56374;BME280;58212;47.034;7.376;2023-10-19T06:50:21;93687.97;;;11.34;95.66
56374;BME280;58212;47.034;7.376;2023-10-19T06:52:49;93687.72;;;11.31;95.66
56374;BME280;58212;47.034;7.376;2023-10-19T06:55:17;93690.38;;;11.31;96.22
56374;BME280;58212;47.034;7.376;2023-10-19T06:57:47;93680.03;;;11.34;95.44
56374;BME280;58212;47.034;7.376;2023-10-19T07:00:15;93687.09;;;11.44;95.50
56374;BME280;58212;47.034;7.376;2023-10-19T07:02:45;93691.84;;;11.47;95.82
56374;BME280;58212;47.034;7.376;2023-10-19T07:05:13;93692.56;;;11.52;95.28
56374;BME280;58212;47.034;7.376;2023-10-19T07:07:45;93697.84;;;11.57;95.60
56374;BME280;58212;47.034;7.376;2023-10-19T07:10:12;93695.94;;;11.63;95.70
56374;BME280;58212;47.034;7.376;2023-10-19T07:12:42;93683.69;;;11.67;95.28
56374;BME280;58212;47.034;7.376;2023-10-19T07:15:10;93688.97;;;11.72;95.57
56374;BME280;58212;47.034;7.376;2023-10-19T07:17:39;93683.63;;;11.77;95.61
56374;BME280;58212;47.034;7.376;2023-10-19T07:20:07;93671.69;;;11.80;95.29
56374;BME280;58212;47.034;7.376;2023-10-19T07:22:58;93676.13;;;11.84;95.50
56374;BME280;58212;47.034;7.376;2023-10-19T07:25:29;93673.97;;;11.86;95.64
56374;BME280;58212;47.034;7.376;2023-10-19T07:27:56;93679.28;;;11.86;95.51
56374;BME280;58212;47.034;7.376;2023-10-19T07:31:01;93671.06;;;11.88;95.13
56374;BME280;58212;47.034;7.376;2023-10-19T07:33:28;93667.06;;;11.90;95.75
56374;BME280;58212;47.034;7.376;2023-10-19T07:35:56;93671.28;;;11.91;95.39
56374;BME280;58212;47.034;7.376;2023-10-19T07:38:25;93673.94;;;11.91;95.51
56374;BME280;58212;47.034;7.376;2023-10-19T07:41:09;93671.78;;;11.93;95.94
56374;BME280;58212;47.034;7.376;2023-10-19T07:43:36;93665.41;;;11.94;95.97
56374;BME280;58212;47.034;7.376;2023-10-19T07:46:04;93674.66;;;11.97;96.09
56374;BME280;58212;47.034;7.376;2023-10-19T07:48:54;93670.94;;;11.98;95.64
56374;BME280;58212;47.034;7.376;2023-10-19T07:51:22;93652.66;;;11.96;95.37
56374;BME280;58212;47.034;7.376;2023-10-19T07:53:49;93653.53;;;11.92;95.64
56374;BME280;58212;47.034;7.376;2023-10-19T07:59:13;93657.47;;;11.94;95.72
56374;BME280;58212;47.034;7.376;2023-10-19T08:01:56;93655.88;;;11.93;95.58
56374;BME280;58212;47.034;7.376;2023-10-19T08:07:05;93655.44;;;11.86;96.10
56374;BME280;58212;47.034;7.376;2023-10-19T08:09:47;93648.53;;;11.85;96.61
56374;BME280;58212;47.034;7.376;2023-10-19T08:12:15;93649.56;;;11.89;96.63
56374;BME280;58212;47.034;7.376;2023-10-19T08:14:57;93640.94;;;11.79;96.45
56374;BME280;58212;47.034;7.376;2023-10-19T08:17:26;93639.97;;;11.93;97.00
56374;BME280;58212;47.034;7.376;2023-10-19T08:20:08;93641.22;;;12.01;96.51
56374;BME280;58212;47.034;7.376;2023-10-19T08:22:41;93630.00;;;12.09;96.70
56374;BME280;58212;47.034;7.376;2023-10-19T08:25:28;93627.13;;;12.05;96.80
56374;BME280;58212;47.034;7.376;2023-10-19T08:27:56;93618.81;;;12.12;96.26
56374;BME280;58212;47.034;7.376;2023-10-19T08:30:23;93619.38;;;12.09;96.51
56374;BME280;58212;47.034;7.376;2023-10-19T08:32:52;93613.72;;;12.15;96.59
56374;BME280;58212;47.034;7.376;2023-10-19T08:35:20;93607.31;;;12.21;96.68
56374;BME280;58212;47.034;7.376;2023-10-19T08:37:51;93603.44;;;12.33;95.92
56374;BME280;58212;47.034;7.376;2023-10-19T08:40:19;93606.59;;;12.35;95.74
56374;BME280;58212;47.034;7.376;2023-10-19T08:42:47;93607.44;;;12.49;95.23
56374;BME280;58212;47.034;7.376;2023-10-19T08:45:14;93599.78;;;12.47;94.94
56374;BME280;58212;47.034;7.376;2023-10-19T08:47:53;93600.66;;;12.61;94.48
56374;BME280;58212;47.034;7.376;2023-10-19T08:50:23;93599.84;;;12.80;94.82
56374;BME280;58212;47.034;7.376;2023-10-19T08:52:52;93606.84;;;12.89;94.53
56374;BME280;58212;47.034;7.376;2023-10-19T08:55:19;93603.75;;;13.01;94.17
56374;BME280;58212;47.034;7.376;2023-10-19T08:57:48;93608.97;;;13.06;94.81
56374;BME280;58212;47.034;7.376;2023-10-19T09:00:16;93613.63;;;13.14;94.82
56374;BME280;58212;47.034;7.376;2023-10-19T09:02:44;93616.59;;;13.12;94.93
56374;BME280;58212;47.034;7.376;2023-10-19T09:05:11;93615.63;;;13.22;94.91
56374;BME280;58212;47.034;7.376;2023-10-19T09:07:47;93621.56;;;13.33;94.82
56374;BME280;58212;47.034;7.376;2023-10-19T09:10:20;93621.16;;;13.26;94.58
56374;BME280;58212;47.034;7.376;2023-10-19T09:12:59;93622.81;;;13.67;93.86
56374;BME280;58212;47.034;7.376;2023-10-19T09:18:13;93606.88;;;13.81;91.84
56374;BME280;58212;47.034;7.376;2023-10-19T09:20:40;93613.44;;;13.70;92.37
56374;BME280;58212;47.034;7.376;2023-10-19T09:23:20;93603.81;;;13.28;93.17
56374;BME280;58212;47.034;7.376;2023-10-19T09:25:48;93606.00;;;13.26;94.84
56374;BME280;58212;47.034;7.376;2023-10-19T09:28:29;93596.44;;;13.25;95.15
56374;BME280;58212;47.034;7.376;2023-10-19T09:33:42;93581.31;;;13.26;95.41
56374;BME280;58212;47.034;7.376;2023-10-19T09:36:10;93580.44;;;13.30;94.95
56374;BME280;58212;47.034;7.376;2023-10-19T09:38:43;93581.63;;;13.38;93.90
56374;BME280;58212;47.034;7.376;2023-10-19T09:41:24;93573.84;;;13.28;93.16
56374;BME280;58212;47.034;7.376;2023-10-19T09:43:58;93575.91;;;13.31;93.98
56374;BME280;58212;47.034;7.376;2023-10-19T09:46:31;93576.13;;;13.48;92.95
56374;BME280;58212;47.034;7.376;2023-10-19T09:49:00;93573.94;;;13.36;92.15
56374;BME280;58212;47.034;7.376;2023-10-19T09:51:27;93569.81;;;13.30;93.01
56374;BME280;58212;47.034;7.376;2023-10-19T09:54:00;93564.50;;;13.44;93.38
56374;BME280;58212;47.034;7.376;2023-10-19T09:56:33;93564.81;;;13.42;92.73
56374;BME280;58212;47.034;7.376;2023-10-19T09:59:05;93556.84;;;13.42;92.32
56374;BME280;58212;47.034;7.376;2023-10-19T10:02:03;93545.81;;;13.35;92.58
56374;BME280;58212;47.034;7.376;2023-10-19T10:04:31;93546.88;;;13.34;92.84
56374;BME280;58212;47.034;7.376;2023-10-19T10:06:58;93545.44;;;13.42;93.14
56374;BME280;58212;47.034;7.376;2023-10-19T10:09:27;93541.38;;;13.44;93.67
56374;BME280;58212;47.034;7.376;2023-10-19T10:11:55;93540.38;;;13.40;94.00
56374;BME280;58212;47.034;7.376;2023-10-19T10:14:24;93542.66;;;13.33;93.57
56374;BME280;58212;47.034;7.376;2023-10-19T10:16:59;93536.34;;;13.29;93.63
56374;BME280;58212;47.034;7.376;2023-10-19T10:19:27;93522.47;;;13.32;94.03
56374;BME280;58212;47.034;7.376;2023-10-19T10:22:03;93529.28;;;13.38;93.66
56374;BME280;58212;47.034;7.376;2023-10-19T10:24:33;93530.56;;;13.41;93.40
56374;BME280;58212;47.034;7.376;2023-10-19T10:27:16;93539.50;;;13.45;93.87
56374;BME280;58212;47.034;7.376;2023-10-19T10:29:54;93541.09;;;13.46;93.61
56374;BME280;58212;47.034;7.376;2023-10-19T10:32:43;93505.25;;;13.30;93.66
56374;BME280;58212;47.034;7.376;2023-10-19T10:35:10;93501.72;;;13.20;93.84
56374;BME280;58212;47.034;7.376;2023-10-19T10:37:37;93517.88;;;13.38;94.20
56374;BME280;58212;47.034;7.376;2023-10-19T10:40:06;93513.34;;;13.52;94.21
56374;BME280;58212;47.034;7.376;2023-10-19T10:42:33;93511.25;;;13.62;93.58
56374;BME280;58212;47.034;7.376;2023-10-19T10:45:01;93504.88;;;13.63;93.30
56374;BME280;58212;47.034;7.376;2023-10-19T10:47:30;93505.06;;;13.67;92.87
56374;BME280;58212;47.034;7.376;2023-10-19T10:50:00;93501.31;;;13.82;92.36
56374;BME280;58212;47.034;7.376;2023-10-19T10:52:28;93492.41;;;14.00;92.14
56374;BME280;58212;47.034;7.376;2023-10-19T10:54:57;93496.59;;;14.14;91.32
56374;BME280;58212;47.034;7.376;2023-10-19T10:57:31;93489.78;;;14.22;89.80
56374;BME280;58212;47.034;7.376;2023-10-19T11:00:05;93479.31;;;14.39;89.94
56374;BME280;58212;47.034;7.376;2023-10-19T11:02:35;93489.69;;;14.49;89.89
56374;BME280;58212;47.034;7.376;2023-10-19T11:05:02;93499.88;;;14.47;89.89
56374;BME280;58212;47.034;7.376;2023-10-19T11:07:29;93499.25;;;14.50;89.89
56374;BME280;58212;47.034;7.376;2023-10-19T11:09:57;93486.63;;;14.56;89.31
56374;BME280;58212;47.034;7.376;2023-10-19T11:12:24;93487.22;;;14.53;88.94
56374;BME280;58212;47.034;7.376;2023-10-19T11:14:56;93479.47;;;14.43;89.47
56374;BME280;58212;47.034;7.376;2023-10-19T11:17:25;93482.47;;;14.28;89.50
56374;BME280;58212;47.034;7.376;2023-10-19T11:20:20;93479.22;;;14.31;89.61
56374;BME280;58212;47.034;7.376;2023-10-19T11:22:48;93480.34;;;14.16;89.93
56374;BME280;58212;47.034;7.376;2023-10-19T11:25:19;93473.75;;;14.13;90.13
56374;BME280;58212;47.034;7.376;2023-10-19T11:27:46;93478.78;;;14.15;90.19
56374;BME280;58212;47.034;7.376;2023-10-19T11:30:22;93477.13;;;14.28;90.22
56374;BME280;58212;47.034;7.376;2023-10-19T11:32:49;93479.22;;;14.31;90.22
56374;BME280;58212;47.034;7.376;2023-10-19T11:35:18;93470.09;;;14.23;90.13
56374;BME280;58212;47.034;7.376;2023-10-19T11:38:05;93490.06;;;14.20;90.34
56374;BME280;58212;47.034;7.376;2023-10-19T11:40:33;93495.00;;;14.27;90.88
56374;BME280;58212;47.034;7.376;2023-10-19T11:43:20;93484.38;;;14.27;90.79
56374;BME280;58212;47.034;7.376;2023-10-19T11:45:48;93472.56;;;14.19;91.35
56374;BME280;58212;47.034;7.376;2023-10-19T11:48:15;93461.31;;;14.23;90.91
56374;BME280;58212;47.034;7.376;2023-10-19T11:50:42;93465.75;;;14.13;90.50
56374;BME280;58212;47.034;7.376;2023-10-19T11:53:08;93454.31;;;14.27;91.22
56374;BME280;58212;47.034;7.376;2023-10-19T11:55:36;93447.97;;;14.36;90.01
56374;BME280;58212;47.034;7.376;2023-10-19T11:58:12;93440.06;;;14.45;90.11
56374;BME280;58212;47.034;7.376;2023-10-19T12:00:55;93440.72;;;14.50;89.58
56374;BME280;58212;47.034;7.376;2023-10-19T12:03:22;93440.47;;;14.60;88.91
56374;BME280;58212;47.034;7.376;2023-10-19T12:06:10;93433.44;;;14.42;85.72
56374;BME280;58212;47.034;7.376;2023-10-19T12:08:38;93423.84;;;14.55;86.00
56374;BME280;58212;47.034;7.376;2023-10-19T12:11:06;93427.50;;;14.67;85.64
56374;BME280;58212;47.034;7.376;2023-10-19T12:13:41;93429.44;;;14.76;85.65
56374;BME280;58212;47.034;7.376;2023-10-19T12:16:10;93413.22;;;14.86;86.55
56374;BME280;58212;47.034;7.376;2023-10-19T12:18:38;93401.16;;;14.88;86.23
56374;BME280;58212;47.034;7.376;2023-10-19T12:21:04;93404.31;;;14.99;86.94
56374;BME280;58212;47.034;7.376;2023-10-19T12:23:33;93419.06;;;14.96;86.10
56374;BME280;58212;47.034;7.376;2023-10-19T12:26:01;93424.59;;;14.78;85.40
56374;BME280;58212;47.034;7.376;2023-10-19T12:28:30;93400.81;;;14.81;87.13
56374;BME280;58212;47.034;7.376;2023-10-19T12:30:56;93402.97;;;14.79;86.91
56374;BME280;58212;47.034;7.376;2023-10-19T12:33:24;93408.78;;;14.81;86.81
56374;BME280;58212;47.034;7.376;2023-10-19T12:35:52;93400.53;;;14.91;87.37
56374;BME280;58212;47.034;7.376;2023-10-19T12:38:37;93400.34;;;14.88;87.17
56374;BME280;58212;47.034;7.376;2023-10-19T12:41:03;93395.53;;;14.98;87.38
56374;BME280;58212;47.034;7.376;2023-10-19T12:43:32;93374.69;;;14.92;87.74
56374;BME280;58212;47.034;7.376;2023-10-19T12:46:00;93379.19;;;14.83;88.07
56374;BME280;58212;47.034;7.376;2023-10-19T12:48:28;93367.66;;;15.04;88.32
56374;BME280;58212;47.034;7.376;2023-10-19T12:50:58;93352.31;;;15.01;88.23
56374;BME280;58212;47.034;7.376;2023-10-19T12:53:41;93355.13;;;15.05;89.15
56374;BME280;58212;47.034;7.376;2023-10-19T12:56:26;93366.41;;;15.02;89.75
56374;BME280;58212;47.034;7.376;2023-10-19T12:58:54;93356.84;;;15.01;89.45
56374;BME280;58212;47.034;7.376;2023-10-19T13:01:21;93349.13;;;14.82;89.43
56374;BME280;58212;47.034;7.376;2023-10-19T13:03:49;93344.56;;;14.83;89.99
56374;BME280;58212;47.034;7.376;2023-10-19T13:06:17;93342.69;;;14.75;90.67
56374;BME280;58212;47.034;7.376;2023-10-19T13:08:44;93338.47;;;14.82;90.29
56374;BME280;58212;47.034;7.376;2023-10-19T13:14:09;93320.72;;;14.69;89.97
56374;BME280;58212;47.034;7.376;2023-10-19T13:19:21;93304.56;;;14.65;90.02
56374;BME280;58212;47.034;7.376;2023-10-19T13:21:50;93298.63;;;14.68;90.48
56374;BME280;58212;47.034;7.376;2023-10-19T13:24:37;93287.56;;;14.84;91.35
56374;BME280;58212;47.034;7.376;2023-10-19T13:27:07;93293.06;;;14.87;90.89
56374;BME280;58212;47.034;7.376;2023-10-19T13:29:34;93288.81;;;14.78;91.04
56374;BME280;58212;47.034;7.376;2023-10-19T13:32:04;93299.41;;;14.69;91.43
56374;BME280;58212;47.034;7.376;2023-10-19T13:34:32;93297.88;;;14.77;91.37
56374;BME280;58212;47.034;7.376;2023-10-19T13:36:59;93290.06;;;14.80;91.43
56374;BME280;58212;47.034;7.376;2023-10-19T13:39:26;93283.06;;;14.93;91.29
56374;BME280;58212;47.034;7.376;2023-10-19T13:41:53;93282.09;;;14.89;90.85
56374;BME280;58212;47.034;7.376;2023-10-19T13:44:20;93281.44;;;14.75;91.13
56374;BME280;58212;47.034;7.376;2023-10-19T13:49:32;93244.63;;;14.77;91.27
56374;BME280;58212;47.034;7.376;2023-10-19T13:52:00;93232.09;;;14.77;89.67
56374;BME280;58212;47.034;7.376;2023-10-19T13:54:29;93235.66;;;14.64;87.60
56374;BME280;58212;47.034;7.376;2023-10-19T13:56:56;93234.91;;;14.63;87.52
56374;BME280;58212;47.034;7.376;2023-10-19T13:59:43;93235.06;;;14.67;87.42
56374;BME280;58212;47.034;7.376;2023-10-19T14:02:09;93222.03;;;14.65;86.66
56374;BME280;58212;47.034;7.376;2023-10-19T14:04:51;93225.78;;;14.64;87.03